Time;durP1;ratioP1;P1;durP2;ratioP2;P2;SDS_P1;SDS_P2;PMS_P1;PMS_P2;Temp;Humidity;BMP_temperature;BMP_pressure;BME280_temperature;BME280_humidity;BME280_pressure;Samples;Min_cycle;Max_cycle;Signal;HPM_P1;HPM_P2
2022/05/07 00:01:19;;;;;;;;;;;;;;;18.86;60.23;100112.19;4345450;33;20333;-89
2022/05/07 00:03:45;;;;;;;;;;;;;;;18.82;60.22;100105.41;4334158;33;20082;-89
2022/05/07 00:06:10;;;;;;;;;;;;;;;18.83;60.22;100109.75;4345379;33;19988;-90
2022/05/07 00:08:35;;;;;;;;;;;;;;;18.72;60.22;100114.84;4332858;33;19991;-90
2022/05/07 00:11:00;;;;;;;;;;;;;;;18.93;60.23;100109.13;4345455;33;20014;-90
2022/05/07 00:13:26;;;;;;;;;;;;;;;18.88;60.23;100107.66;4345280;33;20347;-91
2022/05/07 00:18:35;;;;;;;;;;;;;;;18.85;60.23;100110.50;4347644;33;19994;-90
2022/05/07 00:21:01;;;;;;;;;;;;;;;18.93;60.23;100109.13;4337583;33;19996;-89
2022/05/07 00:23:27;;;;;;;;;;;;;;;18.97;60.23;100113.25;4347541;33;20030;-90
2022/05/07 00:25:52;;;;;;;;;;;;;;;18.89;60.23;100115.50;4335312;33;20010;-90
2022/05/07 00:28:17;;;;;;;;;;;;;;;18.89;60.23;100110.22;4335133;33;19991;-91
2022/05/07 00:30:42;;;;;;;;;;;;;;;18.88;60.22;100112.94;4335177;33;20010;-90
2022/05/07 00:33:08;;;;;;;;;;;;;;;18.93;60.23;100114.38;4335058;33;19979;-90
2022/05/07 00:35:33;;;;;;;;;;;;;;;18.95;60.23;100117.78;4334865;33;20070;-90
2022/05/07 00:37:58;;;;;;;;;;;;;;;18.91;60.22;100118.87;4335110;33;20012;-90
2022/05/07 00:40:23;;;;;;;;;;;;;;;18.91;60.22;100118.87;4335145;33;20261;-89
2022/05/07 00:42:49;;;;;;;;;;;;;;;18.88;60.23;100119.06;4323287;33;20003;-90
2022/05/07 00:45:14;;;;;;;;;;;;;;;18.92;60.22;100119.72;4322965;33;20018;-90
2022/05/07 00:47:39;;;;;;;;;;;;;;;18.89;60.22;100123.41;4334423;33;20043;-90
2022/05/07 00:52:48;;;;;;;;;;;;;;;18.96;60.23;100122.13;4337496;33;20498;-90
2022/05/07 00:55:14;;;;;;;;;;;;;;;18.98;60.23;100111.47;4323407;33;20018;-90
2022/05/07 00:57:39;;;;;;;;;;;;;;;19.05;60.23;100104.87;4335472;33;19976;-90
2022/05/07 01:00:05;;;;;;;;;;;;;;;19.10;60.24;100101.94;4322781;33;24388;-91
2022/05/07 01:02:30;;;;;;;;;;;;;;;19.05;60.23;100106.66;4335563;33;20079;-90
2022/05/07 01:04:55;;;;;;;;;;;;;;;19.06;60.23;100100.44;4323601;33;19991;-91
2022/05/07 01:07:20;;;;;;;;;;;;;;;19.05;60.24;100106.66;4321426;33;20039;-90
2022/05/07 01:09:46;;;;;;;;;;;;;;;19.06;60.23;100101.28;4331931;33;19995;-91
2022/05/07 01:12:11;;;;;;;;;;;;;;;18.97;60.23;100096.56;4329562;32;19956;-91
2022/05/07 01:14:37;;;;;;;;;;;;;;;19.13;60.24;100099.94;4335444;33;19999;-89
2022/05/07 01:17:05;;;;;;;;;;;;;;;19.10;60.23;100101.94;4349553;33;19999;-89
2022/05/07 01:19:30;;;;;;;;;;;;;;;19.01;60.23;100098.09;4348775;33;19991;-88
2022/05/07 01:21:55;;;;;;;;;;;;;;;19.00;60.22;100106.94;4347176;33;20006;-91
2022/05/07 01:24:21;;;;;;;;;;;;;;;18.99;60.22;100106.09;4349031;33;20042;-91
2022/05/07 01:26:46;;;;;;;;;;;;;;;18.96;60.23;100097.53;4335283;33;20046;-91
2022/05/07 01:29:11;;;;;;;;;;;;;;;18.95;60.23;100103.75;4335318;33;20337;-91
2022/05/07 01:31:38;;;;;;;;;;;;;;;18.85;60.22;100097.31;4335326;33;19972;-90
2022/05/07 01:34:03;;;;;;;;;;;;;;;18.99;60.22;100095.53;4335348;33;19971;-91
2022/05/07 01:36:28;;;;;;;;;;;;;;;18.94;60.23;100102.91;4335241;33;20006;-91
2022/05/07 01:38:54;;;;;;;;;;;;;;;18.92;60.23;100099.47;4322982;33;20349;-92
2022/05/07 01:41:19;;;;;;;;;;;;;;;18.88;60.22;100103.25;4334921;33;20015;-90
2022/05/07 01:43:44;;;;;;;;;;;;;;;18.88;60.23;100097.97;4348353;33;19986;-89
2022/05/07 01:48:53;;;;;;;;;;;;;;;18.82;60.22;100093.06;4352051;33;19998;-89
2022/05/07 01:51:19;;;;;;;;;;;;;;;18.82;60.21;100094.87;4335983;33;19976;-89
2022/05/07 01:53:44;;;;;;;;;;;;;;;18.76;60.21;100096.09;4335917;33;20002;-89
2022/05/07 01:56:09;;;;;;;;;;;;;;;18.85;60.22;100098.16;4349625;33;20002;-91
2022/05/07 01:58:34;;;;;;;;;;;;;;;18.80;60.22;100094.09;4334824;33;19987;-91
2022/05/07 02:01:00;;;;;;;;;;;;;;;18.70;60.22;100094.69;4336217;33;20377;-92
2022/05/07 02:03:25;;;;;;;;;;;;;;;18.73;60.21;100096.28;4349282;33;19975;-91
2022/05/07 02:05:50;;;;;;;;;;;;;;;18.69;60.22;100092.97;4323766;33;20058;-91
2022/05/07 02:08:16;;;;;;;;;;;;;;;18.68;60.21;100091.25;4323642;33;20038;-91
2022/05/07 02:10:41;;;;;;;;;;;;;;;18.70;60.22;100091.19;4323718;33;19994;-91
2022/05/07 02:13:06;;;;;;;;;;;;;;;18.70;60.22;100092.03;4349554;33;20002;-91
2022/05/07 02:15:32;;;;;;;;;;;;;;;18.70;60.22;100093.81;4335932;33;20255;-92
2022/05/07 02:17:57;;;;;;;;;;;;;;;18.67;60.21;100092.19;4335927;33;20010;-90
2022/05/07 02:20:23;;;;;;;;;;;;;;;18.60;60.20;100088.22;4348121;33;20235;-91
2022/05/07 02:22:51;;;;;;;;;;;;;;;18.62;60.21;100090.75;4348115;33;20309;-89
2022/05/07 02:25:16;;;;;;;;;;;;;;;18.67;60.21;100093.97;4348052;33;20046;-90
2022/05/07 02:27:42;;;;;;;;;;;;;;;18.54;60.21;100087.72;4349150;33;19972;-89
2022/05/07 02:30:07;;;;;;;;;;;;;;;18.52;60.20;100095.72;4335819;33;20018;-91
2022/05/07 02:32:33;;;;;;;;;;;;;;;18.52;60.20;100095.72;4348662;33;20313;-91
2022/05/07 02:34:58;;;;;;;;;;;;;;;18.57;60.21;100095.44;4348253;33;20351;-90
2022/05/07 02:37:23;;;;;;;;;;;;;;;18.50;60.20;100088.84;4348311;33;19979;-91
2022/05/07 02:39:50;;;;;;;;;;;;;;;18.52;60.20;100089.62;4336113;33;20317;-93
2022/05/07 02:42:54;;;;;;;;;;;;;;;18.40;60.19;100088.53;4336507;33;20340;-92
2022/05/07 02:45:19;;;;;;;;;;;;;;;18.40;60.19;100093.81;4336110;33;20345;-90
2022/05/07 02:47:44;;;;;;;;;;;;;;;18.41;60.20;100090.22;4335517;33;20020;-90
2022/05/07 02:50:10;;;;;;;;;;;;;;;18.44;60.20;100086.56;4335923;33;20014;-90
2022/05/07 02:52:35;;;;;;;;;;;;;;;18.44;60.20;100091.84;4348209;33;19972;-91
2022/05/07 02:55:01;;;;;;;;;;;;;;;18.30;60.20;100093.50;4348389;33;20261;-90
2022/05/07 02:57:27;;;;;;;;;;;;;;;18.28;60.19;100099.81;4347946;33;19975;-90
2022/05/07 02:59:52;;;;;;;;;;;;;;;18.34;60.19;100099.44;4348486;33;19975;-91
2022/05/07 03:02:17;;;;;;;;;;;;;;;18.25;60.19;100098.19;4336800;33;20001;-91
2022/05/07 03:04:42;;;;;;;;;;;;;;;18.30;60.20;100103.19;4337818;33;19991;-90
2022/05/07 03:07:08;;;;;;;;;;;;;;;18.27;60.19;100098.97;4338834;33;20027;-92
2022/05/07 03:09:33;;;;;;;;;;;;;;;18.19;60.19;100106.44;4362483;32;19987;-92
2022/05/07 03:11:58;;;;;;;;;;;;;;;18.19;60.19;100102.97;4340736;33;19971;-91
2022/05/07 03:14:25;;;;;;;;;;;;;;;18.27;60.19;100098.13;4348811;33;20255;-91
2022/05/07 03:16:50;;;;;;;;;;;;;;;18.24;60.19;100100.94;4346781;33;20066;-92
2022/05/07 03:19:16;;;;;;;;;;;;;;;18.19;60.19;100101.16;4345187;33;19980;-91
2022/05/07 03:21:42;;;;;;;;;;;;;;;18.26;60.19;100099.06;4345125;33;19976;-91
2022/05/07 03:24:08;;;;;;;;;;;;;;;18.16;60.19;100097.87;4345163;33;19979;-89
2022/05/07 03:26:33;;;;;;;;;;;;;;;18.17;60.19;100105.69;4332701;33;20127;-90
2022/05/07 03:28:59;;;;;;;;;;;;;;;18.22;60.18;100098.37;4333911;33;19972;-90
2022/05/07 03:31:24;;;;;;;;;;;;;;;18.11;60.18;100100.78;4344671;33;19983;-89
2022/05/07 03:33:50;;;;;;;;;;;;;;;18.10;60.18;100093.81;4344718;33;20023;-89
2022/05/07 03:36:19;;;;;;;;;;;;;;;18.12;60.18;100112.16;4345174;33;20010;-88
2022/05/07 03:38:44;;;;;;;;;;;;;;;18.10;60.18;100105.19;4344520;33;20027;-89
2022/05/07 03:41:10;;;;;;;;;;;;;;;18.12;60.18;100099.84;4331962;33;26041;-89
2022/05/07 03:43:38;;;;;;;;;;;;;;;18.06;60.18;100100.19;4344935;33;20035;-89
2022/05/07 03:46:06;;;;;;;;;;;;;;;18.13;60.18;100106.81;4333751;33;20254;-88
2022/05/07 03:48:31;;;;;;;;;;;;;;;18.08;60.18;100101.81;4333734;33;20314;-87
2022/05/07 03:50:57;;;;;;;;;;;;;;;18.11;60.18;100106.03;4333766;33;19969;-87
2022/05/07 03:53:31;;;;;;;;;;;;;;;18.15;60.18;100104.94;4333681;33;19998;-89
2022/05/07 03:56:00;;;;;;;;;;;;;;;18.13;60.18;100108.59;4344047;33;20046;-90
2022/05/07 03:58:26;;;;;;;;;;;;;;;18.10;60.19;100105.19;4344704;33;19976;-88
2022/05/07 04:00:52;;;;;;;;;;;;;;;18.13;60.19;100111.22;4333512;33;19972;-89
2022/05/07 04:03:18;;;;;;;;;;;;;;;18.13;60.19;100112.06;4333148;33;19987;-88
2022/05/07 04:05:43;;;;;;;;;;;;;;;18.08;60.18;100108.84;4333031;33;26143;-87
2022/05/07 04:08:08;;;;;;;;;;;;;;;18.20;60.18;100118.69;4332704;33;30001;-87
2022/05/07 04:10:33;;;;;;;;;;;;;;;18.16;60.19;100113.69;4332146;33;20001;-87
2022/05/07 04:12:59;;;;;;;;;;;;;;;18.23;60.19;100115.88;4344479;33;20310;-88
2022/05/07 04:15:24;;;;;;;;;;;;;;;18.26;60.19;100120.12;4343895;33;19992;-87
2022/05/07 04:17:49;;;;;;;;;;;;;;;18.28;60.19;100119.09;4344265;33;19987;-87
2022/05/07 04:20:15;;;;;;;;;;;;;;;18.21;60.18;100111.63;4344248;33;19995;-89
2022/05/07 04:22:40;;;;;;;;;;;;;;;18.24;60.20;100122.00;4345842;33;20054;-88
2022/05/07 04:25:06;;;;;;;;;;;;;;;18.30;60.20;100114.59;4346422;33;20006;-88
2022/05/07 04:27:31;;;;;;;;;;;;;;;18.39;60.21;100126.38;4346128;33;19994;-89
2022/05/07 04:29:57;;;;;;;;;;;;;;;18.35;60.19;100120.44;4346062;33;25112;-88
2022/05/07 04:32:23;;;;;;;;;;;;;;;18.33;60.19;100118.81;4335092;33;19992;-89
2022/05/07 04:34:48;;;;;;;;;;;;;;;18.46;60.21;100119.81;4346416;33;20238;-90
2022/05/07 04:37:13;;;;;;;;;;;;;;;18.40;60.20;100117.53;4346245;33;19980;-88
2022/05/07 04:39:38;;;;;;;;;;;;;;;18.44;60.20;100120.81;4334743;33;19972;-87
2022/05/07 04:42:04;;;;;;;;;;;;;;;18.41;60.20;100121.84;4346085;33;19992;-90
2022/05/07 04:44:29;;;;;;;;;;;;;;;18.56;60.20;100118.34;4335329;33;20007;-89
2022/05/07 04:46:54;;;;;;;;;;;;;;;18.63;60.22;100119.69;4333677;33;19988;-91
2022/05/07 04:49:21;;;;;;;;;;;;;;;18.64;60.21;100121.38;4333950;33;19998;-91
2022/05/07 04:51:48;;;;;;;;;;;;;;;18.66;60.20;100124.78;4334265;33;20004;-92
2022/05/07 04:54:13;;;;;;;;;;;;;;;18.79;60.22;100119.63;4334094;33;20002;-91
2022/05/07 04:56:38;;;;;;;;;;;;;;;18.68;60.21;100125.53;4346816;33;19989;-90
2022/05/07 04:59:03;;;;;;;;;;;;;;;18.81;60.22;100120.38;4334797;33;19983;-89
2022/05/07 05:01:29;;;;;;;;;;;;;;;18.78;60.22;100122.37;4347359;33;20333;-89
2022/05/07 05:03:54;;;;;;;;;;;;;;;18.90;60.23;100121.63;4344290;33;20000;-89
2022/05/07 05:06:19;;;;;;;;;;;;;;;18.91;60.22;100124.16;4354704;32;19980;-87
2022/05/07 05:08:44;;;;;;;;;;;;;;;19.03;60.24;100119.94;4335125;33;20267;-88
2022/05/07 05:11:10;;;;;;;;;;;;;;;19.08;60.24;100117.88;4333528;33;20043;-88
2022/05/07 05:13:35;;;;;;;;;;;;;;;19.07;60.23;100117.97;4334374;33;23905;-88
2022/05/07 05:16:00;;;;;;;;;;;;;;;19.13;60.23;100123.69;4321397;33;788261;-88
2022/05/07 05:18:25;;;;;;;;;;;;;;;19.09;60.24;100116.91;4345844;33;20026;-88
2022/05/07 05:20:51;;;;;;;;;;;;;;;19.30;60.24;100122.66;4345819;33;19988;-84
2022/05/07 05:23:16;;;;;;;;;;;;;;;19.35;60.25;100132.94;4333981;33;31410;-89
2022/05/07 05:25:43;;;;;;;;;;;;;;;19.47;60.26;100125.13;4345335;33;22057;-88
2022/05/07 05:28:09;;;;;;;;;;;;;;;19.54;60.27;100129.09;4345547;33;19976;-89
2022/05/07 05:30:34;;;;;;;;;;;;;;;19.66;60.27;100127.47;4334833;33;20076;-89
2022/05/07 05:32:59;;;;;;;;;;;;;;;19.79;60.28;100123.09;4345683;33;20298;-88
2022/05/07 05:35:25;;;;;;;;;;;;;;;19.87;60.28;100125.22;4345250;33;20003;-90
2022/05/07 05:37:50;;;;;;;;;;;;;;;19.97;60.28;100131.63;4345544;33;20004;-87
2022/05/07 05:40:16;;;;;;;;;;;;;;;19.97;60.27;100120.22;4334693;33;20006;-89
2022/05/07 05:42:42;;;;;;;;;;;;;;;20.10;60.29;100126.38;4345698;33;20000;-88
2022/05/07 05:45:09;;;;;;;;;;;;;;;20.00;60.29;100123.50;4334575;33;20330;-88
2022/05/07 05:47:34;;;;;;;;;;;;;;;19.98;60.28;100129.84;4345291;33;19972;-89
2022/05/07 05:50:01;;;;;;;;;;;;;;;20.14;60.28;100127.91;4334621;33;20005;-89
2022/05/07 05:52:27;;;;;;;;;;;;;;;20.16;60.29;100132.13;4345285;33;20070;-90
2022/05/07 05:54:52;;;;;;;;;;;;;;;20.37;60.30;100132.53;4345586;33;19983;-90
2022/05/07 05:57:18;;;;;;;;;;;;;;;20.37;60.31;100127.25;4345340;33;19983;-89
2022/05/07 05:59:43;;;;;;;;;;;;;;;20.44;60.31;100127.69;4334537;33;19983;-89
2022/05/07 06:02:08;;;;;;;;;;;;;;;20.62;60.32;100125.63;4345810;33;19980;-89
2022/05/07 06:04:33;;;;;;;;;;;;;;;20.75;60.32;100126.47;4332853;33;21619;-89
2022/05/07 06:06:59;;;;;;;;;;;;;;;20.79;60.33;100125.31;4333371;33;19976;-90
2022/05/07 06:09:24;;;;;;;;;;;;;;;20.86;60.34;100131.06;4333562;33;20080;-90
2022/05/07 06:11:51;;;;;;;;;;;;;;;20.93;60.33;100129.66;4346073;33;20006;-89
2022/05/07 06:14:16;;;;;;;;;;;;;;;21.01;60.34;100130.81;4345675;33;19984;-89
2022/05/07 06:16:41;;;;;;;;;;;;;;;21.01;60.34;100130.81;4346464;33;22663;-89
2022/05/07 06:19:07;;;;;;;;;;;;;;;21.23;60.34;100129.34;4348204;33;19984;-88
2022/05/07 06:21:32;;;;;;;;;;;;;;;21.32;60.34;100129.59;4349057;33;19995;-87
2022/05/07 06:27:28;;;;;;;;;;;;;;;21.40;60.36;100132.53;4349151;33;19994;-92
2022/05/07 06:29:27;;;;;;;;;;;;;;;21.42;60.36;100129.75;4347991;33;20079;-91
2022/05/07 06:31:52;;;;;;;;;;;;;;;21.58;60.37;100130.38;4335754;33;20003;-91
2022/05/07 06:34:22;;;;;;;;;;;;;;;21.73;60.37;100126.59;4335527;33;20003;-91
2022/05/07 06:36:47;;;;;;;;;;;;;;;21.77;60.37;100129.91;4347338;33;19994;-89
2022/05/07 06:39:12;;;;;;;;;;;;;;;21.75;60.37;100130.00;4347139;33;22306;-91
2022/05/07 06:41:37;;;;;;;;;;;;;;;21.78;60.38;100130.75;4347614;33;20029;-90
2022/05/07 06:44:03;;;;;;;;;;;;;;;21.78;60.38;100134.25;4346650;33;19984;-91
2022/05/07 06:46:29;;;;;;;;;;;;;;;21.84;60.38;100125.84;4348008;33;20023;-91
2022/05/07 06:48:54;;;;;;;;;;;;;;;21.79;60.38;100132.44;4348588;33;19992;-91
2022/05/07 06:51:20;;;;;;;;;;;;;;;21.90;60.38;100133.34;4349392;33;20313;-91
2022/05/07 06:53:45;;;;;;;;;;;;;;;21.97;60.39;100133.72;4350815;33;20023;-92
2022/05/07 06:56:10;;;;;;;;;;;;;;;22.01;60.40;100136.06;4339595;33;20027;-89
2022/05/07 06:58:35;;;;;;;;;;;;;;;22.07;60.39;100129.50;4344659;33;20029;-90
2022/05/07 07:01:03;;;;;;;;;;;;;;;22.24;60.40;100133.53;4358267;33;20015;-89
2022/05/07 07:03:32;;;;;;;;;;;;;;;21.95;60.39;100131.19;4336336;33;20280;-91
2022/05/07 07:05:57;;;;;;;;;;;;;;;21.76;60.38;100130.84;4347992;33;20368;-91
2022/05/07 07:08:24;;;;;;;;;;;;;;;21.76;60.37;100131.69;4347736;33;19984;-90
2022/05/07 07:10:49;;;;;;;;;;;;;;;21.87;60.38;100138.03;4347732;33;19987;-91
2022/05/07 07:13:16;;;;;;;;;;;;;;;22.14;60.39;100128.09;4347721;33;20014;-92
2022/05/07 07:15:41;;;;;;;;;;;;;;;22.42;60.42;100128.66;4335293;33;19984;-92
2022/05/07 07:18:09;;;;;;;;;;;;;;;22.32;60.40;100134.69;4347455;33;20009;-89
2022/05/07 07:20:36;;;;;;;;;;;;;;;22.49;60.41;100138.72;4347678;33;20099;-91
2022/05/07 07:23:01;;;;;;;;;;;;;;;22.67;60.42;100136.47;4335305;33;20071;-91
2022/05/07 07:25:26;;;;;;;;;;;;;;;22.86;60.43;100136.78;4347658;33;19976;-92
2022/05/07 07:27:51;;;;;;;;;;;;;;;22.98;60.44;100140.31;4347187;33;20022;-92
2022/05/07 07:30:17;;;;;;;;;;;;;;;22.94;60.43;100137.03;4334776;33;20310;-91
2022/05/07 07:32:42;;;;;;;;;;;;;;;22.84;60.43;100143.19;4347117;33;19976;-90
2022/05/07 07:35:08;;;;;;;;;;;;;;;22.92;60.44;100140.78;4348683;33;19984;-88
2022/05/07 07:37:33;;;;;;;;;;;;;;;23.05;60.44;100141.53;4335204;33;20269;-91
2022/05/07 07:40:00;;;;;;;;;;;;;;;23.22;60.45;100137.56;4334776;33;19996;-91
2022/05/07 07:42:25;;;;;;;;;;;;;;;;;;4347377;33;19972;-89
2022/05/07 07:47:56;;;;;;;;;;;;;;;22.84;60.43;100149.34;4348638;33;20655;-90
2022/05/07 07:50:19;;;;;;;;;;;;;;;23.23;60.45;100140.09;4347152;33;20009;-91
2022/05/07 07:52:45;;;;;;;;;;;;;;;23.04;60.45;100139.00;4346231;33;28210;-90
2022/05/07 07:55:10;;;;;;;;;;;;;;;22.98;60.45;100142.97;4348124;33;20336;-90
2022/05/07 07:57:35;;;;;;;;;;;;;;;23.20;60.45;100145.66;4335082;33;23668;-90
2022/05/07 08:00:00;;;;;;;;;;;;;;;23.41;60.46;100136.94;4348591;33;20102;-90
2022/05/07 08:02:26;;;;;;;;;;;;;;;23.54;60.47;100143.00;4336475;33;19987;-90
2022/05/07 08:04:54;;;;;;;;;;;;;;;23.67;60.48;100138.44;4336072;33;19994;-90
2022/05/07 08:12:47;;;;;;;;;;;;;;;23.84;60.48;100147.69;4350041;33;19985;-88
2022/05/07 08:15:13;;;;;;;;;;;;;;;23.96;60.49;100137.88;4346117;33;19968;-88
2022/05/07 08:17:38;;;;;;;;;;;;;;;24.21;60.51;100142.03;4345586;33;20340;-86
2022/05/07 08:20:08;;;;;;;;;;;;;;;24.44;60.52;100139.19;4345806;33;25002;-88
2022/05/07 08:22:33;;;;;;;;;;;;;;;24.51;60.51;100136.00;4335079;33;20034;-87
2022/05/07 08:25:01;;;;;;;;;;;;;;;24.58;60.54;100140.69;4334442;33;19968;-89
2022/05/07 08:27:26;;;;;;;;;;;;;;;24.91;60.55;100144.97;4345625;33;20058;-89
2022/05/07 08:29:54;;;;;;;;;;;;;;;25.10;60.55;100144.28;4335133;33;19979;-88
2022/05/07 08:32:19;;;;;;;;;;;;;;;25.26;60.56;100141.97;4346522;33;19994;-89
2022/05/07 08:34:45;;;;;;;;;;;;;;;25.42;60.57;100135.31;4346437;33;19968;-89
2022/05/07 08:37:10;;;;;;;;;;;;;;;25.60;60.57;100139.88;4333925;33;20008;-90
2022/05/07 08:39:36;;;;;;;;;;;;;;;25.65;60.58;100137.62;4333966;33;20014;-89
2022/05/07 08:42:01;;;;;;;;;;;;;;;25.65;60.58;100142.97;4346766;33;20011;-90
2022/05/07 08:44:26;;;;;;;;;;;;;;;25.88;60.59;100137.44;4336108;33;19973;-89
2022/05/07 08:46:52;;;;;;;;;;;;;;;25.68;60.57;100142.72;4347218;33;20026;-89
2022/05/07 08:49:17;;;;;;;;;;;;;;;25.80;60.59;100138.13;4337102;33;20034;-88
2022/05/07 08:51:43;;;;;;;;;;;;;;;26.17;60.61;100138.31;4349278;33;19975;-88
2022/05/07 08:54:10;;;;;;;;;;;;;;;26.35;60.61;100140.31;4355967;33;19994;-90
2022/05/07 08:56:35;;;;;;;;;;;;;;;26.70;60.63;100153.06;4353673;32;19998;-89
2022/05/07 08:59:00;;;;;;;;;;;;;;;26.91;60.64;100143.91;4347038;33;21696;-88
2022/05/07 09:01:25;;;;;;;;;;;;;;;27.07;60.65;100138.00;4336450;33;20003;-88
2022/05/07 09:03:51;;;;;;;;;;;;;;;27.24;60.66;100133.72;4334005;33;20349;-90
2022/05/07 09:06:20;;;;;;;;;;;;;;;27.15;60.65;100135.44;4334821;33;20023;-88
2022/05/07 09:08:45;;;;;;;;;;;;;;;27.27;60.67;100140.59;4345162;33;20027;-88
2022/05/07 09:11:11;;;;;;;;;;;;;;;27.28;60.67;100144.97;4334958;33;20039;-88
2022/05/07 09:13:36;;;;;;;;;;;;;;;27.24;60.66;100144.41;4334773;33;19987;-88
2022/05/07 09:16:02;;;;;;;;;;;;;;;27.19;60.66;100136.81;4343420;33;20088;-88
2022/05/07 09:18:28;;;;;;;;;;;;;;;27.40;60.67;100130.41;4348297;33;20059;-88
2022/05/07 09:21:16;;;;;;;;;;;;;;;27.55;60.67;100128.94;4349546;33;19967;-88
2022/05/07 09:23:44;;;;;;;;;;;;;;;27.90;60.70;100119.31;4349553;33;19967;-89
2022/05/07 09:26:10;;;;;;;;;;;;;;;27.99;60.70;100124.63;4348405;33;19991;-88
2022/05/07 09:28:38;;;;;;;;;;;;;;;27.88;60.69;100119.47;4349460;33;19998;-88
2022/05/07 09:31:03;;;;;;;;;;;;;;;27.83;60.70;100127.94;4335662;33;20340;-88
2022/05/07 09:33:33;;;;;;;;;;;;;;;27.56;60.68;100122.59;4347617;33;27638;-87
2022/05/07 09:36:07;;;;;;;;;;;;;;;27.77;60.69;100125.03;4349450;33;19994;-88
2022/05/07 09:38:32;;;;;;;;;;;;;;;27.61;60.68;100120.31;4349482;33;20006;-88
2022/05/07 09:40:58;;;;;;;;;;;;;;;27.72;60.69;100114.81;4349418;33;19984;-89
2022/05/07 09:43:23;;;;;;;;;;;;;;;27.75;60.69;100110.97;4348831;33;20014;-88
2022/05/07 09:45:48;;;;;;;;;;;;;;;27.65;60.68;100108.34;4335730;33;20340;-88
2022/05/07 09:48:13;;;;;;;;;;;;;;;27.67;60.68;100117.06;4349448;33;20006;-88
2022/05/07 09:58:40;;;;;;;;;;;;;;;28.08;60.71;100096.94;4348313;33;20013;-88
2022/05/07 10:01:20;;;;;;;;;;;;;;;28.07;60.71;100102.44;4348262;33;19976;-88
2022/05/07 10:03:48;;;;;;;;;;;;;;;28.08;60.71;100093.41;4335535;33;19989;-88
2022/05/07 10:06:32;;;;;;;;;;;;;;;28.12;60.71;100089.44;4348101;33;20051;-89
2022/05/07 10:09:00;;;;;;;;;;;;;;;28.11;60.71;100093.09;4349367;33;19995;-88
2022/05/07 10:11:25;;;;;;;;;;;;;;;28.09;60.71;100089.75;4335695;33;19984;-87
2022/05/07 10:13:54;;;;;;;;;;;;;;;28.22;60.72;100081.34;4335343;33;20002;-86
2022/05/07 10:16:20;;;;;;;;;;;;;;;28.45;60.73;100084.41;4345567;33;19972;-88
2022/05/07 10:18:45;;;;;;;;;;;;;;;28.49;60.73;100077.72;4344713;33;20344;-87
2022/05/07 10:21:11;;;;;;;;;;;;;;;28.55;60.73;100082.47;4345485;33;20008;-88
2022/05/07 10:23:38;;;;;;;;;;;;;;;28.77;60.74;100076.59;4333293;33;20744;-88
2022/05/07 10:26:04;;;;;;;;;;;;;;;29.10;60.76;100068.75;4333651;33;20014;-89
2022/05/07 10:28:40;;;;;;;;;;;;;;;29.06;60.76;100070.91;4346157;33;20015;-88
2022/05/07 10:31:14;;;;;;;;;;;;;;;29.12;60.76;100064.94;4345408;33;20348;-88
2022/05/07 10:33:42;;;;;;;;;;;;;;;29.03;60.75;100074.75;4334288;33;19980;-88
2022/05/07 10:36:07;;;;;;;;;;;;;;;28.73;60.74;100069.88;4345266;33;20002;-89
2022/05/07 10:38:33;;;;;;;;;;;;;;;28.79;60.74;100068.38;4334282;33;19976;-89
2022/05/07 10:41:24;;;;;;;;;;;;;;;28.79;60.75;100063.03;4333081;33;19988;-88
2022/05/07 10:43:56;;;;;;;;;;;;;;;28.96;60.75;100056.81;4332227;33;20039;-87
2022/05/07 10:46:21;;;;;;;;;;;;;;;29.18;60.77;100060.75;4333521;33;19980;-85
2022/05/07 10:48:50;;;;;;;;;;;;;;;29.39;60.77;100058.50;4348863;33;19955;-84
2022/05/07 10:51:17;;;;;;;;;;;;;;;29.29;60.77;100061.28;4357608;33;20046;-85
2022/05/07 10:53:42;;;;;;;;;;;;;;;29.03;60.76;100047.94;4345582;33;20079;-85
2022/05/07 10:56:17;;;;;;;;;;;;;;;28.82;60.75;100054.66;4333140;33;20276;-86
2022/05/07 10:58:46;;;;;;;;;;;;;;;28.87;60.76;100060.44;4345212;33;19989;-85
2022/05/07 11:01:11;;;;;;;;;;;;;;;28.77;60.74;100060.50;4334517;33;20043;-85
2022/05/07 11:03:36;;;;;;;;;;;;;;;28.56;60.74;100060.03;4334192;33;20003;-86
2022/05/07 11:06:02;;;;;;;;;;;;;;;28.71;60.74;100053.94;4333558;33;32956;-85
2022/05/07 11:08:30;;;;;;;;;;;;;;;28.89;60.75;100045.06;4344832;33;19988;-86
2022/05/07 11:11:05;;;;;;;;;;;;;;;28.98;60.76;100046.75;4333010;33;19998;-87
2022/05/07 11:13:30;;;;;;;;;;;;;;;29.15;60.76;100048.53;4345112;33;20481;-87
2022/05/07 11:16:05;;;;;;;;;;;;;;;29.17;60.77;100051.03;4335220;33;20003;-86
2022/05/07 11:18:36;;;;;;;;;;;;;;;29.12;60.77;100046.16;4348913;33;20001;-86
2022/05/07 11:21:05;;;;;;;;;;;;;;;28.84;60.75;100052.66;4347504;33;19998;-86
2022/05/07 11:23:35;;;;;;;;;;;;;;;28.42;60.72;100046.25;4334878;33;20013;-86
2022/05/07 11:26:08;;;;;;;;;;;;;;;28.28;60.72;100051.31;4348374;33;20095;-86
2022/05/07 11:28:34;;;;;;;;;;;;;;;28.38;60.73;100039.47;4348639;33;20001;-86
2022/05/07 11:31:00;;;;;;;;;;;;;;;28.72;60.74;100044.91;4348198;33;19990;-87
2022/05/07 11:33:25;;;;;;;;;;;;;;;28.92;60.75;100036.69;4334838;33;19980;-86
2022/05/07 11:36:00;;;;;;;;;;;;;;;28.75;60.75;100038.41;4348491;33;20007;-86
2022/05/07 11:38:26;;;;;;;;;;;;;;;28.77;60.75;100038.25;4348344;33;19963;-86
2022/05/07 11:40:52;;;;;;;;;;;;;;;28.91;60.75;100035.84;4335013;33;20042;-86
2022/05/07 11:46:06;;;;;;;;;;;;;;;28.88;60.76;100035.34;4347503;33;20406;-87
2022/05/07 11:48:31;;;;;;;;;;;;;;;28.65;60.74;100032.31;4347202;33;20042;-87
2022/05/07 11:50:57;;;;;;;;;;;;;;;28.61;60.74;100030.94;4334664;33;20007;-87
2022/05/07 11:53:27;;;;;;;;;;;;;;;28.83;60.75;100025.03;4347149;33;19988;-87
2022/05/07 11:55:52;;;;;;;;;;;;;;;29.06;60.76;100025.34;4334624;33;20427;-87
2022/05/07 11:58:18;;;;;;;;;;;;;;;29.14;60.77;100019.19;4347012;33;19999;-86
2022/05/07 12:00:44;;;;;;;;;;;;;;;28.94;60.76;100018.59;4334690;33;20060;-85
2022/05/07 12:03:09;;;;;;;;;;;;;;;28.59;60.73;100025.75;4346870;33;20006;-87
2022/05/07 12:05:38;;;;;;;;;;;;;;;28.48;60.74;100028.69;4343835;33;20008;-87
2022/05/07 12:08:10;;;;;;;;;;;;;;;28.42;60.73;100024.81;4330683;33;20000;-86
2022/05/07 12:10:35;;;;;;;;;;;;;;;28.37;60.73;100016.37;4318745;33;19976;-87
2022/05/07 12:13:01;;;;;;;;;;;;;;;28.67;60.74;100011.56;4318615;33;20095;-87
2022/05/07 12:18:10;;;;;;;;;;;;;;;28.28;60.73;100017.34;4341530;33;19999;-87
2022/05/07 12:20:35;;;;;;;;;;;;;;;28.51;60.73;100017.66;4345008;33;19979;-86
2022/05/07 12:31:23;;;;;;;;;;;;;;;29.44;60.78;99994.47;4335060;33;20437;-86
2022/05/07 12:33:48;;;;;;;;;;;;;;;29.53;60.78;99998.88;4346296;33;33892;-86
2022/05/07 12:36:13;;;;;;;;;;;;;;;29.73;60.80;99993.22;4332757;33;28152;-86
2022/05/07 12:38:39;;;;;;;;;;;;;;;29.88;60.81;99987.03;4334182;33;20006;-87
2022/05/07 12:41:04;;;;;;;;;;;;;;;30.12;60.82;99988.06;4348890;33;19988;-86
2022/05/07 12:43:29;;;;;;;;;;;;;;;30.20;60.82;99988.03;4351728;33;19979;-86
2022/05/07 12:45:55;;;;;;;;;;;;;;;30.31;60.82;99993.06;4340073;33;20036;-86
2022/05/07 12:48:20;;;;;;;;;;;;;;;30.29;60.83;99983.50;4342511;33;19971;-86
2022/05/07 12:50:46;;;;;;;;;;;;;;;30.52;60.84;99984.44;4336325;33;19994;-86
2022/05/07 12:53:13;;;;;;;;;;;;;;;30.66;60.85;99975.72;4335276;33;20590;-86
2022/05/07 12:55:38;;;;;;;;;;;;;;;30.80;60.84;99969.63;4348436;33;20451;-85
2022/05/07 12:58:04;;;;;;;;;;;;;;;30.98;60.85;99968.53;4347796;33;29257;-85
2022/05/07 13:00:30;;;;;;;;;;;;;;;31.10;60.87;99957.22;4334969;33;19990;-85
2022/05/07 13:03:00;;;;;;;;;;;;;;;31.07;60.87;99962.13;4348540;33;19976;-86
2022/05/07 13:05:25;;;;;;;;;;;;;;;30.97;60.85;99959.62;4335291;33;20341;-85
2022/05/07 13:07:50;;;;;;;;;;;;;;;30.81;60.84;99955.19;4334860;33;20001;-85
2022/05/07 13:10:16;;;;;;;;;;;;;;;30.60;60.84;99959.44;4334832;33;20049;-85
2022/05/07 13:12:41;;;;;;;;;;;;;;;30.36;60.84;99963.00;4346679;33;21087;-86
2022/05/07 13:15:06;;;;;;;;;;;;;;;30.20;60.83;99967.41;4348320;33;20005;-85